createdAt,value
2019-01-03T11:46:43.979Z,62.96
2019-01-03T11:51:49.309Z,62.51
2019-01-03T11:56:54.751Z,61.12
2019-01-03T12:46:20.739Z,59.46
2019-01-03T12:51:36.973Z,57.48
2019-01-03T12:56:41.342Z,58.48
2019-01-03T13:01:47.329Z,56.37
2019-01-03T13:07:03.383Z,57.16
2019-01-03T13:12:07.162Z,57.93
2019-01-03T13:17:11.562Z,57.04
2019-01-03T13:22:16.065Z,57.82
2019-01-03T13:27:20.126Z,57.20
2019-01-03T13:32:24.798Z,56.64
2019-01-03T13:37:28.717Z,57.00
2019-01-03T13:42:32.291Z,57.56
2019-01-03T13:47:36.821Z,57.59
2019-01-03T13:52:40.485Z,57.63
2019-01-03T13:57:45.223Z,57.60
2019-01-03T14:02:49.775Z,58.01
2019-01-03T14:08:01.801Z,56.82
2019-01-03T14:13:08.920Z,58.39
2019-01-03T14:18:12.859Z,60.29
2019-01-03T14:23:18.208Z,60.62
2019-01-03T14:28:21.815Z,61.30
2019-01-03T14:33:27.432Z,61.16
2019-01-03T14:38:39.016Z,62.51
2019-01-03T14:43:47.372Z,62.15
2019-01-03T14:48:54.854Z,61.80
2019-01-03T14:54:00.309Z,62.95
2019-01-03T14:59:15.396Z,61.86
2019-01-03T15:04:21.675Z,62.20
2019-01-03T15:09:30.066Z,62.46
2019-01-03T15:14:39.937Z,63.06
2019-01-03T15:19:45.657Z,63.07
2019-01-03T15:24:55.694Z,62.97
2019-01-03T15:30:06.138Z,62.70
2019-01-03T15:35:12.355Z,62.91
2019-01-03T15:40:18.258Z,62.45
2019-01-03T15:45:46.475Z,61.88
2019-01-03T15:51:15.342Z,61.91
2019-01-03T15:56:24.368Z,61.54
2019-01-03T16:01:33.618Z,61.94
2019-01-03T16:06:42.323Z,61.47
2019-01-03T16:11:47.866Z,62.19
2019-01-03T16:16:53.285Z,62.44
2019-01-03T16:22:02.466Z,62.79
2019-01-03T16:27:07.503Z,63.39
2019-01-03T16:32:12.074Z,63.66
2019-01-03T16:37:19.555Z,64.53
2019-01-03T16:42:24.013Z,64.99
2019-01-03T16:47:30.284Z,65.25
2019-01-03T16:52:44.728Z,65.38
2019-01-03T16:57:49.916Z,65.00
2019-01-03T17:03:04.525Z,66.13
2019-01-03T17:08:08.875Z,66.24
2019-01-03T17:13:13.130Z,66.76
2019-01-03T17:18:21.293Z,67.62
2019-01-03T17:23:25.980Z,66.34
2019-01-03T17:28:35.066Z,66.14
2019-01-03T17:33:45.721Z,65.73
2019-01-03T17:38:53.197Z,66.90
2019-01-03T17:44:06.271Z,66.32
2019-01-03T17:49:13.127Z,65.90
2019-01-03T17:54:25.840Z,66.80
2019-01-03T17:59:32.815Z,68.13
2019-01-03T18:04:46.291Z,67.14
2019-01-03T18:09:52.194Z,68.49
2019-01-03T18:14:56.330Z,68.83
2019-01-03T18:20:12.166Z,68.52
2019-01-03T18:25:18.784Z,68.82
2019-01-03T18:30:23.029Z,68.52
2019-01-03T18:35:27.728Z,68.40
2019-01-03T18:40:31.774Z,69.24
2019-01-03T18:45:37.075Z,68.64
2019-01-03T18:50:43.268Z,69.81
2019-01-03T18:55:49.509Z,69.04
2019-01-03T19:00:56.517Z,70.86
2019-01-03T19:06:02.436Z,71.90
2019-01-03T19:11:07.621Z,71.11
2019-01-03T19:16:13.608Z,71.25
2019-01-03T19:21:19.643Z,69.45
2019-01-03T19:26:32.199Z,70.94
2019-01-03T19:31:37.222Z,70.71
2019-01-03T19:36:42.267Z,71.49
2019-01-03T19:41:49.681Z,70.33
2019-01-03T19:46:55.600Z,70.11
2019-01-03T19:52:06.456Z,69.77
2019-01-03T19:57:10.750Z,70.70
2019-01-03T20:02:16.626Z,70.46
2019-01-03T20:07:24.592Z,69.00
2019-01-03T20:12:30.803Z,70.70
2019-01-03T20:17:37.267Z,70.03
2019-01-03T20:22:44.198Z,70.83
2019-01-03T20:27:51.602Z,71.74
2019-01-03T20:32:56.117Z,71.81
2019-01-03T20:38:03.144Z,72.56
2019-01-03T20:43:07.947Z,72.81
2019-01-03T20:48:11.706Z,74.04
2019-01-03T20:53:16.722Z,74.67
2019-01-03T20:58:20.403Z,74.27
2019-01-03T21:03:28.555Z,73.29
2019-01-03T21:08:35.225Z,74.57
2019-01-03T21:13:38.806Z,75.48
2019-01-03T21:18:50.448Z,74.52
2019-01-03T21:23:54.592Z,74.08
2019-01-03T21:29:05.162Z,74.33
2019-01-03T21:34:16.820Z,73.92
2019-01-03T21:39:20.406Z,74.07
2019-01-03T21:44:24.332Z,74.42
2019-01-03T21:49:29.382Z,73.30
2019-01-03T21:54:33.121Z,73.39
2019-01-03T21:59:39.312Z,73.14
2019-01-03T22:04:43.343Z,74.30
2019-01-03T22:09:46.953Z,72.75
2019-01-03T22:14:50.676Z,74.03
2019-01-03T22:19:54.048Z,73.45
2019-01-03T22:24:57.401Z,73.12
2019-01-03T22:30:01.550Z,73.68
2019-01-03T22:35:04.912Z,73.83
2019-01-03T22:40:08.245Z,73.00
2019-01-03T22:45:11.620Z,72.79
2019-01-03T22:50:14.968Z,73.07
2019-01-03T22:55:18.313Z,73.89
2019-01-03T23:00:28.126Z,72.84
2019-01-03T23:05:34.514Z,74.34
2019-01-03T23:10:37.864Z,74.89
2019-01-03T23:15:42.013Z,73.78
2019-01-03T23:20:45.371Z,75.26
2019-01-03T23:25:48.735Z,75.53
2019-01-03T23:30:52.281Z,74.43
2019-01-03T23:35:55.634Z,74.55
2019-01-03T23:40:58.982Z,74.26
2019-01-03T23:46:02.366Z,72.46
2019-01-03T23:51:05.715Z,74.36
2019-01-03T23:56:09.064Z,73.80
